createdAt,value
2018-07-27T00:00:14.253Z,15.52
2018-07-27T00:01:14.127Z,15.38
2018-07-27T00:02:14.007Z,15.49
2018-07-27T00:03:13.886Z,15.45
2018-07-27T00:04:13.762Z,15.45
2018-07-27T00:05:13.642Z,15.42
2018-07-27T00:06:13.516Z,15.41
2018-07-27T00:07:13.396Z,15.39
2018-07-27T00:08:13.273Z,15.45
2018-07-27T00:09:13.157Z,15.46
2018-07-27T00:10:13.031Z,15.49
2018-07-27T00:11:12.927Z,15.42
2018-07-27T00:12:12.790Z,15.42
2018-07-27T00:13:12.665Z,15.48
2018-07-27T00:14:12.547Z,15.42
2018-07-27T00:15:12.421Z,15.39
2018-07-27T00:16:12.302Z,15.48
2018-07-27T00:17:12.180Z,15.46
2018-07-27T00:18:12.057Z,15.42
2018-07-27T00:19:11.936Z,15.48
2018-07-27T00:20:11.814Z,15.42
2018-07-27T00:21:11.692Z,15.41
2018-07-27T00:22:11.598Z,15.43
2018-07-27T00:23:11.449Z,15.38
2018-07-27T00:24:11.328Z,15.33
2018-07-27T00:25:11.206Z,15.36
2018-07-27T00:26:11.083Z,15.36
2018-07-27T00:27:10.962Z,15.30
2018-07-27T00:28:10.839Z,15.30
2018-07-27T00:29:10.719Z,15.35
2018-07-27T00:30:10.595Z,15.36
2018-07-27T00:31:10.475Z,15.31
2018-07-27T00:32:10.352Z,15.27
2018-07-27T00:33:10.252Z,15.30
2018-07-27T00:34:10.108Z,15.23
2018-07-27T00:35:09.986Z,15.31
2018-07-27T00:36:09.871Z,15.35
2018-07-27T00:37:09.744Z,15.35
2018-07-27T00:38:09.621Z,15.27
2018-07-27T00:39:09.502Z,15.23
2018-07-27T00:40:09.376Z,15.09
2018-07-27T00:41:09.258Z,15.12
2018-07-27T00:42:09.136Z,15.17
2018-07-27T00:43:09.613Z,15.13
2018-07-27T00:44:08.891Z,15.17
2018-07-27T00:45:08.770Z,15.15
2018-07-27T00:46:08.647Z,15.13
2018-07-27T00:47:08.532Z,15.17
2018-07-27T00:48:08.403Z,15.21
2018-07-27T00:49:08.282Z,15.20
2018-07-27T00:50:08.159Z,15.30
2018-07-27T00:51:08.047Z,15.23
2018-07-27T00:52:07.916Z,15.28
2018-07-27T00:53:07.797Z,15.20
2018-07-27T00:54:07.672Z,15.19
2018-07-27T00:55:07.552Z,15.13
2018-07-27T00:56:07.426Z,15.20
2018-07-27T00:57:07.305Z,15.19
2018-07-27T00:58:07.184Z,15.21
2018-07-27T00:59:07.063Z,15.08
2018-07-27T01:00:06.942Z,15.09
2018-07-27T01:01:06.819Z,15.08
2018-07-27T01:02:06.697Z,15.05
2018-07-27T01:03:06.579Z,15.05
2018-07-27T01:04:06.453Z,15.03
2018-07-27T01:05:06.333Z,15.08
2018-07-27T01:06:06.211Z,15.03
2018-07-27T01:07:06.087Z,15.09
2018-07-27T01:08:05.968Z,15.17
2018-07-27T01:09:05.849Z,15.20
2018-07-27T01:10:05.724Z,15.19
2018-07-27T01:11:05.599Z,15.13
2018-07-27T01:12:05.618Z,15.19
2018-07-27T01:13:05.356Z,15.20
2018-07-27T01:14:05.233Z,15.13
2018-07-27T01:15:05.111Z,15.20
2018-07-27T01:16:04.989Z,15.20
2018-07-27T01:17:04.872Z,15.13
2018-07-27T01:18:04.746Z,15.09
2018-07-27T01:19:04.623Z,15.12
2018-07-27T01:20:04.503Z,15.11
2018-07-27T01:21:04.381Z,15.12
2018-07-27T01:22:04.257Z,15.09
2018-07-27T01:23:04.133Z,15.02
2018-07-27T01:24:04.017Z,14.99
2018-07-27T01:25:03.889Z,15.05
2018-07-27T01:26:03.770Z,15.12
2018-07-27T01:27:03.649Z,15.09
2018-07-27T01:28:03.526Z,15.05
2018-07-27T01:29:03.406Z,15.05
2018-07-27T01:30:03.331Z,15.08
2018-07-27T01:31:03.161Z,15.20
2018-07-27T01:32:03.038Z,15.20
2018-07-27T01:33:02.918Z,15.13
2018-07-27T01:34:02.793Z,15.09
2018-07-27T01:35:02.673Z,15.05
2018-07-27T01:36:02.548Z,15.11
2018-07-27T01:37:02.429Z,14.93
2018-07-27T01:38:02.307Z,14.93
2018-07-27T01:39:02.184Z,15.02
2018-07-27T01:40:02.061Z,15.01
2018-07-27T01:41:01.945Z,15.03
2018-07-27T01:42:01.817Z,15.03
2018-07-27T01:43:01.693Z,15.03
2018-07-27T01:44:01.575Z,15.01
2018-07-27T01:45:01.458Z,15.02
2018-07-27T01:46:01.331Z,15.03
2018-07-27T01:47:01.207Z,14.88
2018-07-27T01:48:01.084Z,14.91
2018-07-27T01:49:00.962Z,15.03
2018-07-27T01:50:00.841Z,15.05
2018-07-27T01:51:00.789Z,15.01
2018-07-27T01:52:00.598Z,14.99
2018-07-27T01:53:00.472Z,15.01
2018-07-27T01:54:00.352Z,14.99
2018-07-27T01:55:00.229Z,14.91
2018-07-27T01:56:00.108Z,14.83
2018-07-27T01:56:59.988Z,14.78
2018-07-27T01:57:59.862Z,14.74
2018-07-27T01:58:59.741Z,14.80
2018-07-27T01:59:59.629Z,14.87
2018-07-27T02:00:59.501Z,14.69
2018-07-27T02:01:59.375Z,14.75
2018-07-27T02:02:59.253Z,14.78
2018-07-27T02:03:59.135Z,14.74
2018-07-27T02:04:59.008Z,14.74
2018-07-27T02:05:58.912Z,14.72
2018-07-27T02:06:58.766Z,14.74
2018-07-27T02:07:58.645Z,14.78
2018-07-27T02:08:58.523Z,14.78
2018-07-27T02:09:58.400Z,14.75
2018-07-27T02:10:58.277Z,14.71
2018-07-27T02:11:58.154Z,14.68
2018-07-27T02:12:58.085Z,14.61
2018-07-27T02:13:57.908Z,14.72
2018-07-27T02:14:57.788Z,14.72
2018-07-27T02:15:57.667Z,14.71
2018-07-27T02:16:57.544Z,14.75
2018-07-27T02:17:57.420Z,14.74
2018-07-27T02:18:57.301Z,14.67
2018-07-27T02:19:57.177Z,14.57
2018-07-27T02:20:57.056Z,14.64
2018-07-27T02:21:56.930Z,14.61
2018-07-27T02:22:56.809Z,14.61
2018-07-27T02:23:56.688Z,14.67
2018-07-27T02:24:56.568Z,14.61
2018-07-27T02:25:56.443Z,14.57
2018-07-27T02:26:56.321Z,14.50
2018-07-27T02:27:56.200Z,14.54
2018-07-27T02:28:56.077Z,14.54
2018-07-27T02:29:55.953Z,14.52
2018-07-27T02:30:55.831Z,14.49
2018-07-27T02:31:55.742Z,14.61
2018-07-27T02:32:55.590Z,14.61
2018-07-27T02:33:55.532Z,14.60
2018-07-27T02:34:55.344Z,14.52
2018-07-27T02:35:55.220Z,14.47
2018-07-27T02:36:55.097Z,14.49
2018-07-27T02:37:54.977Z,14.54
2018-07-27T02:38:54.854Z,14.43
2018-07-27T02:39:55.778Z,14.44
2018-07-27T02:40:54.613Z,14.46
2018-07-27T02:41:54.487Z,14.42
2018-07-27T02:42:54.364Z,14.54
2018-07-27T02:43:54.247Z,14.49
2018-07-27T02:44:54.121Z,14.44
2018-07-27T02:45:53.998Z,14.44
2018-07-27T02:46:53.875Z,14.34
2018-07-27T02:47:53.759Z,14.29
2018-07-27T02:48:53.632Z,14.35
2018-07-27T02:49:53.508Z,14.46
2018-07-27T02:50:53.386Z,14.46
2018-07-27T02:51:53.265Z,14.50
2018-07-27T02:52:53.144Z,14.53
2018-07-27T02:53:53.019Z,14.43
2018-07-27T02:54:52.898Z,14.47
2018-07-27T02:55:52.780Z,14.52
2018-07-27T02:56:52.654Z,14.52
2018-07-27T02:57:52.529Z,14.47
2018-07-27T02:58:52.409Z,14.44
2018-07-27T02:59:52.289Z,14.38
2018-07-27T03:00:52.164Z,14.37
2018-07-27T03:01:52.040Z,14.31
2018-07-27T03:02:51.920Z,14.34
2018-07-27T03:03:51.799Z,14.19
2018-07-27T03:04:51.674Z,14.21
2018-07-27T03:05:51.560Z,14.19
2018-07-27T03:06:51.434Z,14.21
2018-07-27T03:07:51.311Z,14.20
2018-07-27T03:08:51.616Z,14.24
2018-07-27T03:09:51.110Z,14.20
2018-07-27T03:10:50.940Z,14.17
2018-07-27T03:11:50.822Z,14.17
2018-07-27T03:12:50.696Z,14.20
2018-07-27T03:13:50.572Z,14.29
2018-07-27T03:14:50.461Z,14.24
2018-07-27T03:15:50.331Z,14.27
2018-07-27T03:16:50.207Z,14.31
2018-07-27T03:17:50.082Z,14.21
2018-07-27T03:18:49.960Z,14.20
2018-07-27T03:19:49.844Z,14.28
2018-07-27T03:20:49.719Z,14.21
2018-07-27T03:21:49.594Z,14.24
2018-07-27T03:22:49.473Z,14.32
2018-07-27T03:23:49.353Z,14.29
2018-07-27T03:24:49.227Z,14.31
2018-07-27T03:25:49.105Z,14.20
2018-07-27T03:26:48.981Z,14.21
2018-07-27T03:27:48.859Z,14.21
2018-07-27T03:28:48.735Z,14.17
2018-07-27T03:29:48.651Z,14.19
2018-07-27T03:30:48.494Z,14.21
2018-07-27T03:31:48.368Z,14.20
2018-07-27T03:32:48.249Z,14.25
2018-07-27T03:33:48.125Z,14.20
2018-07-27T03:34:48.003Z,14.21
2018-07-27T03:35:47.878Z,14.21
2018-07-27T03:36:47.760Z,14.19
2018-07-27T03:37:47.653Z,14.21
2018-07-27T03:38:47.515Z,14.24
2018-07-27T03:39:47.389Z,14.27
2018-07-27T03:40:47.265Z,14.25
2018-07-27T03:41:47.144Z,14.19
2018-07-27T03:42:47.022Z,14.21
2018-07-27T03:43:46.966Z,14.24
2018-07-27T03:44:46.776Z,14.16
2018-07-27T03:45:46.656Z,14.25
2018-07-27T03:46:46.532Z,14.19
2018-07-27T03:47:46.419Z,14.14
2018-07-27T03:48:46.287Z,14.19
2018-07-27T03:49:46.167Z,14.19
2018-07-27T03:50:46.042Z,14.21
2018-07-27T03:51:45.922Z,14.20
2018-07-27T03:52:45.798Z,14.20
2018-07-27T03:53:45.676Z,14.24
2018-07-27T03:54:45.551Z,14.21
2018-07-27T03:55:45.430Z,14.20
2018-07-27T03:56:45.308Z,14.27
2018-07-27T03:57:45.186Z,14.34
2018-07-27T03:58:45.061Z,14.24
2018-07-27T03:59:44.941Z,14.25
2018-07-27T04:00:44.820Z,14.20
2018-07-27T04:01:44.698Z,14.21
2018-07-27T04:02:44.574Z,14.20
2018-07-27T04:03:44.448Z,14.20
2018-07-27T04:04:44.328Z,14.27
2018-07-27T04:05:44.205Z,14.31
2018-07-27T04:06:44.086Z,14.32
2018-07-27T04:07:43.964Z,14.20
2018-07-27T04:08:43.842Z,14.31
2018-07-27T04:09:43.719Z,14.19
2018-07-27T04:10:43.597Z,14.35
2018-07-27T04:11:43.468Z,14.37
2018-07-27T04:12:43.350Z,14.29
2018-07-27T04:13:43.223Z,14.14
2018-07-27T04:14:43.101Z,14.28
2018-07-27T04:15:42.977Z,14.20
2018-07-27T04:16:42.856Z,14.17
2018-07-27T04:17:42.733Z,14.20
2018-07-27T04:18:42.611Z,14.21
2018-07-27T04:19:42.489Z,14.19
2018-07-27T04:20:42.366Z,14.24
2018-07-27T04:21:42.243Z,14.16
2018-07-27T04:22:42.122Z,14.24
2018-07-27T04:23:42.000Z,14.13
2018-07-27T04:24:41.883Z,14.16
2018-07-27T04:25:41.765Z,14.14
2018-07-27T04:26:41.657Z,14.17
2018-07-27T04:27:41.515Z,14.27
2018-07-27T04:28:41.389Z,14.19
2018-07-27T04:29:41.264Z,14.20
2018-07-27T04:30:41.145Z,14.20
2018-07-27T04:31:41.025Z,14.19
2018-07-27T04:32:40.901Z,14.17
2018-07-27T04:33:40.779Z,14.20
2018-07-27T04:34:40.656Z,14.31
2018-07-27T04:35:40.586Z,14.38
2018-07-27T04:36:40.408Z,14.38
2018-07-27T04:37:40.287Z,14.46
2018-07-27T04:38:40.165Z,14.47
2018-07-27T04:39:40.044Z,14.42
2018-07-27T04:40:39.920Z,14.39
2018-07-27T04:41:39.799Z,14.34
2018-07-27T04:42:39.675Z,14.35
2018-07-27T04:43:39.554Z,14.37
2018-07-27T04:44:39.431Z,14.35
2018-07-27T04:45:39.309Z,14.37
2018-07-27T04:46:39.186Z,14.31
2018-07-27T04:47:39.066Z,14.34
2018-07-27T04:48:38.940Z,14.39
2018-07-27T04:49:38.817Z,14.47
2018-07-27T04:50:38.696Z,14.60
2018-07-27T04:51:38.574Z,14.56
2018-07-27T04:52:38.451Z,14.64
2018-07-27T04:53:38.328Z,14.67
2018-07-27T04:54:38.208Z,14.83
2018-07-27T04:55:38.086Z,14.80
2018-07-27T04:56:38.045Z,15.05
2018-07-27T04:57:37.842Z,15.05
2018-07-27T04:58:37.719Z,15.02
2018-07-27T04:59:37.596Z,15.28
2018-07-27T05:00:37.473Z,15.33
2018-07-27T05:01:37.350Z,15.31
2018-07-27T05:02:37.234Z,15.33
2018-07-27T05:03:37.108Z,15.35
2018-07-27T05:04:36.995Z,15.54
2018-07-27T05:05:37.672Z,15.57
2018-07-27T05:06:36.748Z,15.52
2018-07-27T05:07:36.623Z,15.49
2018-07-27T05:08:36.498Z,15.63
2018-07-27T05:09:36.380Z,15.43
2018-07-27T05:10:36.260Z,15.54
2018-07-27T05:11:36.134Z,15.60
2018-07-27T05:12:36.011Z,15.68
2018-07-27T05:13:35.891Z,15.84
2018-07-27T05:14:35.772Z,15.81
2018-07-27T05:15:35.648Z,15.74
2018-07-27T05:16:35.523Z,15.64
2018-07-27T05:17:35.401Z,15.61
2018-07-27T05:18:35.280Z,15.67
2018-07-27T05:19:35.161Z,15.72
2018-07-27T05:20:35.040Z,15.82
2018-07-27T05:21:34.917Z,15.89
2018-07-27T05:22:34.794Z,16.04
2018-07-27T05:23:34.673Z,16.16
2018-07-27T05:24:34.611Z,16.16
2018-07-27T05:25:34.432Z,16.40
2018-07-27T05:26:34.308Z,16.45
2018-07-27T05:27:34.229Z,16.59
2018-07-27T05:28:34.071Z,16.65
2018-07-27T05:29:33.953Z,16.70
2018-07-27T05:30:33.835Z,16.53
2018-07-27T05:31:33.717Z,16.56
2018-07-27T05:32:33.624Z,16.52
2018-07-27T05:33:33.494Z,16.55
2018-07-27T05:34:33.733Z,16.67
2018-07-27T05:35:33.217Z,16.68
2018-07-27T05:36:33.100Z,16.77
2018-07-27T05:37:32.974Z,16.89
2018-07-27T05:38:32.853Z,17.11
2018-07-27T05:39:32.733Z,17.28
2018-07-27T05:40:32.614Z,17.32
2018-07-27T05:41:32.494Z,17.41
2018-07-27T05:42:32.370Z,17.43
2018-07-27T05:43:32.248Z,17.46
2018-07-27T05:44:32.127Z,17.38
2018-07-27T05:45:32.008Z,17.33
2018-07-27T05:46:31.886Z,17.38
2018-07-27T05:47:31.768Z,17.35
2018-07-27T05:48:31.668Z,17.33
2018-07-27T05:49:31.533Z,17.46
2018-07-27T05:50:31.402Z,17.51
2018-07-27T05:51:31.284Z,17.57
2018-07-27T05:52:31.164Z,17.57
2018-07-27T05:53:31.044Z,17.69
2018-07-27T05:54:30.926Z,17.71
2018-07-27T05:55:30.801Z,17.81
2018-07-27T05:56:30.682Z,17.74
2018-07-27T05:57:30.558Z,17.63
2018-07-27T05:58:30.443Z,17.79
2018-07-27T05:59:30.358Z,17.78
2018-07-27T06:00:30.197Z,17.81
2018-07-27T06:01:30.079Z,17.79
2018-07-27T06:02:29.955Z,18.03
2018-07-27T06:03:29.839Z,18.07
2018-07-27T06:04:29.718Z,18.13
2018-07-27T06:05:29.594Z,18.18
2018-07-27T06:06:29.473Z,18.33
2018-07-27T06:07:29.353Z,18.34
2018-07-27T06:08:29.238Z,18.43
2018-07-27T06:09:29.114Z,18.50
2018-07-27T06:10:28.992Z,18.57
2018-07-27T06:11:28.873Z,18.61
2018-07-27T06:12:28.753Z,18.73
2018-07-27T06:13:28.633Z,18.82
2018-07-27T06:14:28.519Z,18.87
2018-07-27T06:15:28.392Z,18.83
2018-07-27T06:16:28.276Z,18.79
2018-07-27T06:17:28.154Z,18.80
2018-07-27T06:18:28.033Z,18.74
2018-07-27T06:19:27.919Z,18.80
2018-07-27T06:20:27.792Z,18.86
2018-07-27T06:21:27.672Z,18.79
2018-07-27T06:22:27.552Z,18.70
2018-07-27T06:23:27.466Z,18.68
2018-07-27T06:24:27.361Z,18.58
2018-07-27T06:25:27.200Z,18.44
2018-07-27T06:26:27.073Z,18.36
2018-07-27T06:27:26.958Z,18.22
2018-07-27T06:28:26.839Z,18.18
2018-07-27T06:29:26.714Z,18.15
2018-07-27T06:30:26.601Z,18.17
2018-07-27T06:31:26.478Z,18.10
2018-07-27T06:32:26.361Z,18.39
2018-07-27T06:33:26.235Z,18.46
2018-07-27T06:34:26.118Z,18.42
2018-07-27T06:35:25.994Z,18.42
2018-07-27T06:36:25.874Z,18.25
2018-07-27T06:37:25.781Z,18.44
2018-07-27T06:38:25.639Z,18.40
2018-07-27T06:39:25.523Z,18.55
2018-07-27T06:40:25.396Z,18.64
2018-07-27T06:41:25.283Z,18.86
2018-07-27T06:42:25.159Z,18.94
2018-07-27T06:43:25.038Z,18.94
2018-07-27T06:44:24.924Z,18.83
2018-07-27T06:45:24.797Z,19.05
2018-07-27T06:46:24.679Z,19.23
2018-07-27T06:47:24.560Z,19.36
2018-07-27T06:48:24.439Z,19.50
2018-07-27T06:49:24.342Z,19.68
2018-07-27T06:50:24.201Z,19.69
2018-07-27T06:51:24.083Z,19.75
2018-07-27T06:52:23.968Z,19.86
2018-07-27T06:53:23.849Z,19.78
2018-07-27T06:54:23.724Z,19.87
2018-07-27T06:55:23.604Z,20.05
2018-07-27T06:56:23.493Z,20.06
2018-07-27T06:57:23.365Z,19.88
2018-07-27T06:58:23.248Z,19.80
2018-07-27T06:59:23.130Z,19.86
2018-07-27T07:00:23.008Z,19.83
2018-07-27T07:01:22.894Z,19.86
2018-07-27T07:02:23.704Z,19.79
2018-07-27T07:03:22.691Z,19.91
2018-07-27T07:04:22.535Z,20.13
2018-07-27T07:05:22.415Z,20.28
2018-07-27T07:06:22.297Z,20.39
2018-07-27T07:07:22.274Z,20.42
2018-07-27T07:08:22.056Z,20.39
2018-07-27T07:09:21.938Z,20.25
2018-07-27T07:10:21.820Z,20.33
2018-07-27T07:11:21.701Z,20.34
2018-07-27T07:12:21.584Z,20.30
2018-07-27T07:13:21.465Z,20.39
2018-07-27T07:14:21.397Z,20.46
2018-07-27T07:15:21.224Z,20.50
2018-07-27T07:16:21.107Z,20.53
2018-07-27T07:17:20.992Z,20.49
2018-07-27T07:18:20.871Z,20.66
2018-07-27T07:19:20.753Z,20.91
2018-07-27T07:20:20.634Z,21.16
2018-07-27T07:21:20.515Z,21.29
2018-07-27T07:22:20.400Z,21.27
2018-07-27T07:23:20.278Z,21.21
2018-07-27T07:24:20.162Z,20.58
2018-07-27T07:25:20.148Z,20.54
2018-07-27T07:26:19.921Z,20.68
2018-07-27T07:27:19.802Z,20.87
2018-07-27T07:28:19.684Z,21.08
2018-07-27T07:29:19.579Z,21.32
2018-07-27T07:30:19.449Z,21.42
2018-07-27T07:31:19.708Z,21.38
2018-07-27T07:32:19.224Z,21.42
2018-07-27T07:33:19.102Z,21.21
2018-07-27T07:34:18.975Z,21.13
2018-07-27T07:35:18.856Z,21.17
2018-07-27T07:36:18.738Z,21.08
2018-07-27T07:37:18.617Z,21.13
2018-07-27T07:38:18.501Z,21.14
2018-07-27T07:39:18.383Z,21.09
2018-07-27T07:40:18.287Z,21.32
2018-07-27T07:41:18.148Z,21.24
2018-07-27T07:42:18.031Z,21.36
2018-07-27T07:43:17.912Z,21.42
2018-07-27T07:44:17.824Z,21.34
2018-07-27T07:45:17.674Z,21.45
2018-07-27T07:46:17.557Z,21.54
2018-07-27T07:47:17.439Z,21.60
2018-07-27T07:48:17.530Z,21.69
2018-07-27T07:49:17.282Z,21.94
2018-07-27T07:50:17.084Z,21.98
2018-07-27T07:51:16.968Z,21.97
2018-07-27T07:52:16.851Z,21.98
2018-07-27T07:53:16.734Z,22.01
2018-07-27T07:54:16.612Z,22.07
2018-07-27T07:55:16.497Z,22.12
2018-07-27T07:56:16.379Z,22.23
2018-07-27T07:57:16.260Z,22.20
2018-07-27T07:58:16.143Z,22.37
2018-07-27T07:59:16.031Z,22.27
2018-07-27T08:00:15.911Z,21.75
2018-07-27T08:01:15.790Z,21.90
2018-07-27T08:02:15.673Z,22.10
2018-07-27T08:03:15.558Z,21.46
2018-07-27T08:04:15.459Z,21.59
2018-07-27T08:05:15.320Z,21.79
2018-07-27T08:06:15.207Z,22.04
2018-07-27T08:07:15.088Z,21.75
2018-07-27T08:08:14.969Z,21.42
2018-07-27T08:09:14.856Z,21.42
2018-07-27T08:10:14.733Z,21.48
2018-07-27T08:11:14.650Z,21.63
2018-07-27T08:12:14.500Z,21.75
2018-07-27T08:13:14.384Z,22.07
2018-07-27T08:14:14.267Z,22.20
2018-07-27T08:15:14.404Z,21.98
2018-07-27T08:16:14.041Z,21.94
2018-07-27T08:17:13.920Z,22.22
2018-07-27T08:18:13.796Z,21.69
2018-07-27T08:19:14.318Z,21.74
2018-07-27T08:20:13.567Z,22.07
2018-07-27T08:21:13.446Z,22.38
2018-07-27T08:22:13.327Z,22.49
2018-07-27T08:23:13.210Z,22.19
2018-07-27T08:24:14.213Z,22.32
2018-07-27T08:25:15.637Z,22.44
2018-07-27T08:26:12.867Z,22.54
2018-07-27T08:27:12.746Z,22.52
2018-07-27T08:28:12.629Z,22.75
2018-07-27T08:29:12.513Z,22.80
2018-07-27T08:30:12.412Z,22.83
2018-07-27T08:31:12.279Z,22.82
2018-07-27T08:32:12.160Z,22.72
2018-07-27T08:33:12.044Z,22.92
2018-07-27T08:34:11.924Z,22.67
2018-07-27T08:35:11.808Z,22.75
2018-07-27T08:36:11.698Z,22.72
2018-07-27T08:37:11.573Z,22.77
2018-07-27T08:38:11.460Z,22.74
2018-07-27T08:39:11.341Z,22.74
2018-07-27T08:40:11.229Z,22.80
2018-07-27T08:41:11.110Z,22.87
2018-07-27T08:42:10.992Z,22.87
2018-07-27T08:43:10.883Z,23.02
2018-07-27T08:44:10.760Z,23.20
2018-07-27T08:45:10.643Z,23.45
2018-07-27T08:46:10.526Z,23.65
2018-07-27T08:47:10.426Z,23.79
2018-07-27T08:48:10.293Z,23.85
2018-07-27T08:49:10.179Z,23.77
2018-07-27T08:50:10.063Z,23.45
2018-07-27T08:51:09.943Z,23.60
2018-07-27T08:52:09.827Z,23.34
2018-07-27T08:53:09.710Z,23.34
2018-07-27T08:54:09.599Z,23.24
2018-07-27T08:55:09.481Z,23.17
2018-07-27T08:56:09.361Z,23.31
2018-07-27T08:57:09.246Z,23.34
2018-07-27T08:58:09.131Z,23.39
2018-07-27T08:59:09.730Z,23.65
2018-07-27T09:00:08.899Z,23.82
2018-07-27T09:01:08.782Z,24.17
2018-07-27T09:02:08.664Z,24.24
2018-07-27T09:03:08.549Z,24.49
2018-07-27T09:04:08.433Z,24.59
2018-07-27T09:05:08.320Z,24.44
2018-07-27T09:06:08.207Z,24.57
2018-07-27T09:07:08.086Z,24.42
2018-07-27T09:08:07.975Z,24.14
2018-07-27T09:09:07.853Z,24.10
2018-07-27T09:10:07.742Z,24.20
2018-07-27T09:11:07.629Z,24.34
2018-07-27T09:12:07.509Z,24.22
2018-07-27T09:13:07.391Z,24.22
2018-07-27T09:14:07.276Z,24.10
2018-07-27T09:15:07.162Z,24.26
2018-07-27T09:16:07.045Z,24.47
2018-07-27T09:17:06.928Z,24.47
2018-07-27T09:18:06.816Z,24.41
2018-07-27T09:19:06.698Z,24.22
2018-07-27T09:20:06.582Z,24.19
2018-07-27T09:21:06.467Z,24.22
2018-07-27T09:22:06.351Z,24.19
2018-07-27T09:23:06.235Z,24.19
2018-07-27T09:24:06.120Z,24.08
2018-07-27T09:25:06.215Z,23.92
2018-07-27T09:26:05.887Z,23.80
2018-07-27T09:27:05.779Z,23.75
2018-07-27T09:28:05.748Z,24.00
2018-07-27T09:29:05.815Z,24.26
2018-07-27T09:30:06.213Z,24.17
2018-07-27T09:31:05.310Z,24.38
2018-07-27T09:32:05.201Z,24.42
2018-07-27T09:33:05.078Z,24.68
2018-07-27T09:34:04.968Z,24.56
2018-07-27T09:35:04.855Z,24.75
2018-07-27T09:36:04.733Z,24.85
2018-07-27T09:37:04.615Z,24.90
2018-07-27T09:38:04.498Z,24.79
2018-07-27T09:39:04.381Z,24.45
2018-07-27T09:40:04.368Z,24.52
2018-07-27T09:41:04.155Z,24.68
2018-07-27T09:42:04.036Z,24.82
2018-07-27T09:43:03.935Z,24.94
2018-07-27T09:44:03.805Z,25.17
2018-07-27T09:45:03.691Z,25.17
2018-07-27T09:46:03.585Z,25.16
2018-07-27T09:47:03.460Z,25.32
2018-07-27T09:48:03.345Z,25.47
2018-07-27T09:49:03.228Z,25.42
2018-07-27T09:50:03.304Z,25.34
2018-07-27T09:51:02.995Z,25.17
2018-07-27T09:52:02.898Z,24.95
2018-07-27T09:53:02.768Z,24.95
2018-07-27T09:54:02.653Z,24.92
2018-07-27T09:55:02.535Z,25.01
2018-07-27T09:56:02.421Z,24.87
2018-07-27T09:57:02.308Z,24.75
2018-07-27T09:58:02.193Z,24.82
2018-07-27T09:59:02.076Z,24.97
2018-07-27T10:00:04.462Z,25.05
2018-07-27T10:01:01.847Z,25.38
2018-07-27T10:02:01.731Z,25.46
2018-07-27T10:03:01.615Z,25.71
2018-07-27T10:04:03.166Z,25.67
2018-07-27T10:05:01.385Z,25.68
2018-07-27T10:06:01.272Z,25.50
2018-07-27T10:07:01.155Z,25.53
2018-07-27T10:08:01.043Z,25.69
2018-07-27T10:09:00.925Z,25.71
2018-07-27T10:10:00.809Z,25.91
2018-07-27T10:11:00.692Z,26.09
2018-07-27T10:12:00.698Z,26.46
2018-07-27T10:13:00.464Z,26.40
2018-07-27T10:14:02.169Z,26.50
2018-07-27T10:15:00.237Z,26.89
2018-07-27T10:16:00.121Z,27.04
2018-07-27T10:17:00.009Z,26.84
2018-07-27T10:17:59.889Z,26.28
2018-07-27T10:18:59.775Z,26.11
2018-07-27T10:19:59.664Z,25.77
2018-07-27T10:20:59.547Z,26.02
2018-07-27T10:21:59.435Z,26.36
2018-07-27T10:22:59.320Z,26.54
2018-07-27T10:23:59.207Z,26.91
2018-07-27T10:24:59.090Z,27.39
2018-07-27T10:25:58.978Z,27.29
2018-07-27T10:26:59.791Z,27.01
2018-07-27T10:27:58.752Z,26.76
2018-07-27T10:28:58.637Z,26.57
2018-07-27T10:29:58.522Z,26.39
2018-07-27T10:30:58.411Z,26.11
2018-07-27T10:31:58.325Z,25.75
2018-07-27T10:32:58.180Z,25.44
2018-07-27T10:33:58.072Z,25.32
2018-07-27T10:34:57.954Z,25.09
2018-07-27T10:35:57.841Z,24.83
2018-07-27T10:36:57.726Z,24.68
2018-07-27T10:37:57.612Z,24.20
2018-07-27T10:38:57.500Z,24.42
2018-07-27T10:39:57.387Z,24.16
2018-07-27T10:40:57.278Z,24.02
2018-07-27T10:41:57.157Z,24.29
2018-07-27T10:42:57.040Z,24.76
2018-07-27T10:43:56.929Z,25.28
2018-07-27T10:44:56.902Z,25.82
2018-07-27T10:45:56.697Z,25.74
2018-07-27T10:46:56.590Z,26.05
2018-07-27T10:47:56.472Z,26.54
2018-07-27T10:48:56.359Z,26.84
2018-07-27T10:49:56.242Z,27.16
2018-07-27T10:50:56.131Z,27.48
2018-07-27T10:51:56.019Z,27.67
2018-07-27T10:52:55.901Z,27.67
2018-07-27T10:53:55.910Z,27.23
2018-07-27T10:54:55.677Z,26.58
2018-07-27T10:55:56.048Z,26.58
2018-07-27T10:56:55.452Z,26.42
2018-07-27T10:57:55.385Z,26.47
2018-07-27T10:58:55.225Z,26.35
2018-07-27T10:59:55.111Z,26.28
2018-07-27T11:00:54.998Z,26.32
2018-07-27T11:01:54.887Z,26.83
2018-07-27T11:02:54.772Z,26.92
2018-07-27T11:03:54.661Z,27.38
2018-07-27T11:04:54.548Z,27.70
2018-07-27T11:05:54.436Z,27.89
2018-07-27T11:06:54.385Z,27.64
2018-07-27T11:07:54.214Z,27.46
2018-07-27T11:08:54.163Z,27.14
2018-07-27T11:09:54.068Z,27.54
2018-07-27T11:10:53.876Z,27.94
2018-07-27T11:11:53.762Z,28.36
2018-07-27T11:12:53.652Z,28.51
2018-07-27T11:13:55.129Z,28.59
2018-07-27T11:14:53.439Z,28.43
2018-07-27T11:15:53.317Z,27.84
2018-07-27T11:16:53.204Z,27.47
2018-07-27T11:17:53.170Z,27.06
2018-07-27T11:18:52.982Z,27.13
2018-07-27T11:19:52.870Z,27.71
2018-07-27T11:20:52.871Z,28.33
2018-07-27T11:21:52.757Z,28.65
2018-07-27T11:22:52.537Z,28.56
2018-07-27T11:23:52.428Z,28.06
2018-07-27T11:24:52.315Z,28.22
2018-07-27T11:25:52.203Z,27.73
2018-07-27T11:26:52.094Z,28.11
2018-07-27T11:27:51.981Z,28.63
2018-07-27T11:28:51.869Z,28.72
2018-07-27T11:29:51.760Z,28.88
2018-07-27T11:30:51.667Z,28.77
2018-07-27T11:31:51.536Z,28.19
2018-07-27T11:32:51.424Z,28.26
2018-07-27T11:33:51.316Z,28.43
2018-07-27T11:34:51.207Z,28.95
2018-07-27T11:35:51.094Z,29.37
2018-07-27T11:36:50.981Z,29.60
2018-07-27T11:37:50.884Z,29.77
2018-07-27T11:38:50.764Z,30.11
2018-07-27T11:39:50.653Z,29.59
2018-07-27T11:40:50.547Z,29.07
2018-07-27T11:41:50.432Z,29.06
2018-07-27T11:42:50.319Z,29.06
2018-07-27T11:43:51.204Z,29.71
2018-07-27T11:44:50.099Z,30.09
2018-07-27T11:45:49.989Z,30.47
2018-07-27T11:46:49.881Z,30.64
2018-07-27T11:47:49.770Z,30.59
2018-07-27T11:48:49.662Z,30.57
2018-07-27T11:49:49.550Z,30.40
2018-07-27T11:50:49.440Z,30.07
2018-07-27T11:51:49.332Z,30.18
2018-07-27T11:52:49.228Z,30.54
2018-07-27T11:53:49.111Z,30.47
2018-07-27T11:54:49.843Z,30.52
2018-07-27T11:55:48.893Z,30.61
2018-07-27T11:56:48.783Z,30.76
2018-07-27T11:57:48.674Z,31.01
2018-07-27T11:58:48.569Z,31.09
2018-07-27T11:59:48.458Z,31.36
2018-07-27T12:00:48.346Z,31.26
2018-07-27T12:01:50.207Z,30.62
2018-07-27T12:02:48.129Z,29.89
2018-07-27T12:03:48.019Z,30.11
2018-07-27T12:04:47.909Z,30.40
2018-07-27T12:05:47.803Z,30.64
2018-07-27T12:06:47.694Z,31.01
2018-07-27T12:07:47.585Z,31.21
2018-07-27T12:08:47.473Z,31.01
2018-07-27T12:09:47.366Z,31.43
2018-07-27T12:10:47.259Z,31.53
2018-07-27T12:11:47.148Z,30.50
2018-07-27T12:12:47.039Z,30.89
2018-07-27T12:13:46.946Z,31.18
2018-07-27T12:14:46.970Z,31.45
2018-07-27T12:15:46.714Z,31.70
2018-07-27T12:16:46.606Z,31.75
2018-07-27T12:17:46.496Z,31.80
2018-07-27T12:18:46.391Z,31.60
2018-07-27T12:19:46.282Z,31.31
2018-07-27T12:20:46.348Z,31.46
2018-07-27T12:21:46.276Z,31.05
2018-07-27T12:22:45.966Z,31.64
2018-07-27T12:23:45.845Z,31.91
2018-07-27T12:24:45.736Z,31.85
2018-07-27T12:25:45.631Z,32.17
2018-07-27T12:26:45.518Z,31.96
2018-07-27T12:27:45.411Z,32.21
2018-07-27T12:28:45.300Z,32.51
2018-07-27T12:29:45.193Z,33.01
2018-07-27T12:30:45.087Z,32.24
2018-07-27T12:31:44.977Z,31.85
2018-07-27T12:32:44.877Z,31.75
2018-07-27T12:33:44.759Z,31.93
2018-07-27T12:34:44.650Z,31.75
2018-07-27T12:35:44.543Z,31.98
2018-07-27T12:36:44.439Z,31.88
2018-07-27T12:37:44.326Z,31.75
2018-07-27T12:38:44.218Z,32.11
2018-07-27T12:39:44.109Z,32.37
2018-07-27T12:40:43.998Z,32.54
2018-07-27T12:41:43.891Z,32.35
2018-07-27T12:42:43.836Z,32.54
2018-07-27T12:43:43.676Z,32.71
2018-07-27T12:44:43.566Z,32.20
2018-07-27T12:45:43.458Z,32.35
2018-07-27T12:46:43.348Z,32.88
2018-07-27T12:47:45.223Z,33.22
2018-07-27T12:48:44.725Z,33.57
2018-07-27T12:49:43.025Z,33.73
2018-07-27T12:50:42.918Z,34.00